Terminal Aerodrome Forecast
Issued by NWS Hastings, NE

Home | Current Version | Previous Version | Text Only | Print | Product List | Glossary On
Versions: 1 2 3 4 5 6 7 8 9 10 11 12 13 14 15 16 17 18
000
FTUS43 KGID 210537
TAFGRI
TAF
KGRI 210537Z 2106/2206 VRB05KT P6SM SKC
     FM211500 16009KT P6SM FEW150
     FM211700 17017G24KT P6SM SKC
     FM220300 16011KT P6SM FEW250 WS006/17045KT
     FM220400 16011KT P6SM FEW250 WS006/18060KT=

USA.gov is the U.S. government's official web portal to all federal, state and local government web resources and services.